Time;durP1;ratioP1;P1;durP2;ratioP2;P2;SDS_P1;SDS_P2;PMS_P1;PMS_P2;Temp;Humidity;BMP_temperature;BMP_pressure;BME280_temperature;BME280_humidity;BME280_pressure;Samples;Min_cycle;Max_cycle;Signal;HPM_P1;HPM_P2
2022/01/31 00:01:59;;;;;;;12.65;6.50;;;;;;;28.64;60.88;100978.09;5014326;28;65735;-36
2022/01/31 00:04:29;;;;;;;8.60;6.50;;;;;;;28.76;61.54;100998.09;5014325;28;70520;-36
2022/01/31 00:07:00;;;;;;;8.20;6.90;;;;;;;28.74;61.62;100994.75;5017639;28;65329;-37
2022/01/31 00:09:31;;;;;;;13.65;5.78;;;;;;;28.76;61.52;100987.28;5017735;28;69620;-36
2022/01/31 00:12:10;;;;;;;11.00;6.32;;;;;;;28.79;61.53;100989.56;5014060;28;65580;-37
2022/01/31 00:14:47;;;;;;;14.77;7.25;;;;;;;28.86;62.26;101006.63;5017599;28;69677;-36
2022/01/31 00:17:18;;;;;;;9.23;6.85;;;;;;;28.84;62.25;101003.31;5016743;28;66268;-37
2022/01/31 00:19:48;;;;;;;9.75;6.30;;;;;;;28.91;62.88;101000.59;5016358;28;69723;-36
2022/01/31 00:22:18;;;;;;;8.25;6.60;;;;;;;28.98;62.61;101022.25;5017851;28;65543;-36
2022/01/31 00:24:49;;;;;;;17.23;7.90;;;;;;;28.78;63.14;100990.63;5013007;28;70655;-36
2022/01/31 00:27:19;;;;;;;21.65;13.73;;;;;;;29.04;64.00;101026.84;5015857;28;65164;-36
2022/01/31 00:29:50;;;;;;;25.63;17.08;;;;;;;29.03;64.08;101035.94;5016374;28;69360;-37
2022/01/31 00:32:21;;;;;;;20.20;14.93;;;;;;;29.11;63.65;101033.09;5016261;28;66104;-36
2022/01/31 00:34:51;;;;;;;20.60;11.88;;;;;;;28.98;63.61;101016.84;4998938;28;70300;-37
2022/01/31 00:37:22;;;;;;;23.10;10.98;;;;;;;29.15;63.91;101046.00;5018638;28;65400;-37
2022/01/31 00:39:53;;;;;;;24.45;9.60;;;;;;;29.18;63.88;101050.16;5013978;28;69854;-37
2022/01/31 00:42:25;;;;;;;15.45;9.68;;;;;;;29.20;63.97;101045.38;5018745;28;66744;-37
2022/01/31 00:45:11;;;;;;;24.23;15.57;;;;;;;29.24;64.28;101053.91;5015763;28;69969;-37
2022/01/31 00:47:47;;;;;;;30.83;19.75;;;;;;;29.24;64.17;101043.91;5016876;28;65691;-35
2022/01/31 00:50:19;;;;;;;28.52;16.70;;;;;;;29.27;64.45;101054.31;5008239;28;70006;-36
2022/01/31 00:52:50;;;;;;;34.67;19.42;;;;;;;29.21;64.97;101052.44;4993484;28;65887;-36
2022/01/31 00:55:20;;;;;;;34.85;18.52;;;;;;;29.25;64.40;101056.38;5017974;28;69778;-34
2022/01/31 00:57:50;;;;;;;26.08;14.40;;;;;;;29.20;64.89;101064.28;5015706;28;65488;-35
2022/01/31 01:00:21;;;;;;;18.48;11.57;;;;;;;29.15;64.30;101066.78;5015801;28;70575;-35
2022/01/31 01:02:52;;;;;;;19.85;12.02;;;;;;;29.09;64.47;101062.19;5013601;28;65285;-36
2022/01/31 01:05:24;;;;;;;17.17;10.93;;;;;;;29.03;64.87;101058.44;5015216;28;69394;-35
2022/01/31 01:07:55;;;;;;;17.42;10.38;;;;;;;29.01;64.73;101070.44;5029700;28;65587;-35
2022/01/31 01:10:25;;;;;;;19.52;10.20;;;;;;;28.95;64.51;101075.63;5018517;28;69812;-35
2022/01/31 01:12:56;;;;;;;22.88;9.68;;;;;;;28.91;64.72;101074.34;5015611;28;65414;-35
2022/01/31 01:15:26;;;;;;;12.30;9.32;;;;;;;28.90;64.99;101074.56;5014310;28;70444;-35
2022/01/31 01:17:58;;;;;;;15.65;9.88;;;;;;;28.92;65.08;101083.31;4999684;28;65148;-35
2022/01/31 01:20:29;;;;;;;13.95;9.80;;;;;;;28.86;65.13;101078.69;5013545;28;69570;-36
2022/01/31 01:23:01;;;;;;;15.85;9.75;;;;;;;28.89;64.61;101092.63;5015936;28;66054;-35
2022/01/31 01:25:33;;;;;;;20.13;9.73;;;;;;;28.80;65.19;101072.22;5011497;28;70186;-36
2022/01/31 01:28:05;;;;;;;14.38;10.52;;;;;;;28.89;65.58;101084.53;5000851;28;66371;-36
2022/01/31 01:30:35;;;;;;;16.58;12.38;;;;;;;28.85;65.64;101080.56;5018500;28;70025;-36
2022/01/31 01:33:11;;;;;;;16.10;12.90;;;;;;;28.91;65.29;101093.25;5018337;28;65554;-36
2022/01/31 01:35:42;;;;;;;24.65;12.75;;;;;;;28.93;65.14;101091.19;5015378;28;69271;-35
2022/01/31 01:38:15;;;;;;;19.23;12.40;;;;;;;28.95;65.18;101091.81;5017673;28;66238;-35
2022/01/31 01:40:47;;;;;;;29.23;15.57;;;;;;;28.75;64.72;101047.69;5016903;28;70252;-35
2022/01/31 01:43:20;;;;;;;29.33;15.77;;;;;;;28.99;65.06;101077.91;5016975;28;66168;-36
2022/01/31 01:45:52;;;;;;;20.98;13.38;;;;;;;28.92;64.46;101073.31;5018255;28;69632;-35
2022/01/31 01:48:26;;;;;;;21.92;11.70;;;;;;;29.02;64.39;101080.19;5000936;28;66258;-36
2022/01/31 01:50:59;;;;;;;17.85;11.23;;;;;;;29.03;64.06;101089.97;5017828;28;69381;-36
2022/01/31 01:53:30;;;;;;;18.10;9.98;;;;;;;29.00;64.04;101084.97;5012360;28;66332;-37
2022/01/31 01:56:00;;;;;;;11.95;10.13;;;;;;;29.05;63.38;101082.53;5016436;28;70655;-46
2022/01/31 01:58:41;;;;;;;17.77;10.23;;;;;;;29.03;63.39;101081.84;5004396;28;66084;-36
2022/01/31 02:01:13;;;;;;;19.23;10.10;;;;;;;29.05;62.86;101082.53;5008565;28;69682;-37
2022/01/31 02:03:49;;;;;;;14.38;10.05;;;;;;;29.05;62.30;101082.53;5015233;28;66259;-36
2022/01/31 02:06:21;;;;;;;11.32;9.30;;;;;;;29.07;62.16;101085.88;5014663;28;70087;-36
2022/01/31 02:08:52;;;;;;;19.27;10.27;;;;;;;29.11;62.44;101087.97;5019995;28;65452;-37
2022/01/31 02:11:32;;;;;;;24.40;11.48;;;;;;;29.13;63.30;101095.84;5021492;28;69533;-37
2022/01/31 02:14:03;;;;;;;20.08;10.90;;;;;;;29.18;62.27;101093.38;4981205;28;67376;-37
2022/01/31 02:16:33;;;;;;;20.00;9.75;;;;;;;29.20;61.89;101102.13;5010124;28;70057;-37
2022/01/31 02:19:22;;;;;;;22.33;11.70;;;;;;;29.19;61.51;101084.22;5017855;28;66019;-37
2022/01/31 02:22:12;;;;;;;17.02;10.55;;;;;;;29.22;60.85;101088.38;5015185;28;70191;-36
2022/01/31 02:24:54;;;;;;;12.25;9.88;;;;;;;29.24;61.12;101097.13;5014542;28;66235;-36
2022/01/31 02:27:36;;;;;;;12.80;9.40;;;;;;;29.20;60.80;101074.25;5018511;28;69684;-36
2022/01/31 02:30:14;;;;;;;12.02;10.05;;;;;;;29.32;60.18;101089.66;5014345;28;66767;-36
2022/01/31 02:32:48;;;;;;;12.93;9.48;;;;;;;29.22;60.20;101075.72;5019514;28;70099;-37
2022/01/31 02:35:19;;;;;;;20.70;10.15;;;;;;;29.34;60.83;101087.59;5018868;28;65889;-36
2022/01/31 02:37:50;;;;;;;13.30;9.23;;;;;;;29.37;59.64;101087.19;5002323;28;69082;-35
2022/01/31 02:40:29;;;;;;;11.68;9.23;;;;;;;29.08;59.81;101038.91;5012958;28;65422;-37
2022/01/31 02:43:04;;;;;;;15.15;9.30;;;;;;;29.42;59.67;101088.44;5013406;28;71425;-36
2022/01/31 02:45:36;;;;;;;10.25;9.10;;;;;;;29.39;59.77;101079.72;5013768;28;66690;-36
2022/01/31 02:48:07;;;;;;;19.63;10.40;;;;;;;29.47;59.96;101091.34;5018772;28;69275;-36
2022/01/31 02:50:40;;;;;;;23.45;17.13;;;;;;;29.44;59.97;101067.44;5018827;28;67266;-40
2022/01/31 02:53:13;;;;;;;35.63;25.85;;;;;;;29.56;59.34;101084.69;5020140;28;70502;-37
2022/01/31 02:55:45;;;;;;;88.97;61.08;;;;;;;29.34;60.39;101032.72;5002838;28;65839;-37
2022/01/31 02:58:19;;;;;;;42.72;24.88;;;;;;;29.62;59.77;101073.09;5015274;28;70093;-38
2022/01/31 03:00:52;;;;;;;30.80;18.23;;;;;;;29.65;60.06;101067.28;5000889;28;65187;-36
2022/01/31 03:03:36;;;;;;;49.42;28.70;;;;;;;29.67;59.55;101076.03;5017137;28;70494;-37
2022/01/31 03:06:06;;;;;;;81.28;26.08;;;;;;;29.67;60.21;101076.03;4987413;28;66129;-36
2022/01/31 03:08:38;;;;;;;69.25;28.13;;;;;;;29.71;59.98;101071.84;5035220;28;70089;-37
2022/01/31 03:11:18;;;;;;;59.42;32.17;;;;;;;29.70;59.67;101072.91;5019925;28;66504;-38
2022/01/31 03:14:15;;;;;;;46.75;23.48;;;;;;;29.72;59.43;101062.69;5011287;28;69199;-37
2022/01/31 03:16:51;;;;;;;42.47;21.90;;;;;;;29.76;59.44;101069.38;5003134;28;66520;-38
2022/01/31 03:19:23;;;;;;;27.92;17.35;;;;;;;29.80;58.72;101065.19;5018512;28;70611;-37
2022/01/31 03:22:01;;;;;;;23.75;15.93;;;;;;;29.82;58.79;101055.00;5016840;28;65192;-36
2022/01/31 03:24:32;;;;;;;34.80;20.00;;;;;;;29.88;59.35;101060.63;5017371;28;69678;-36
2022/01/31 03:27:04;;;;;;;29.35;17.70;;;;;;;29.89;59.85;101056.88;5015897;28;65487;-38
2022/01/31 03:29:35;;;;;;;46.70;26.98;;;;;;;29.94;60.42;101054.38;5011977;28;70027;-37
2022/01/31 03:32:06;;;;;;;73.43;37.08;;;;;;;29.97;60.13;101049.38;5016738;28;65513;-37
2022/01/31 03:34:37;;;;;;;51.80;32.33;;;;;;;29.98;61.14;101047.50;5019466;28;70169;-37
2022/01/31 03:37:07;;;;;;;65.38;32.33;;;;;;;30.01;61.54;101038.97;5020206;28;65722;-37
2022/01/31 03:39:38;;;;;;;53.58;30.45;;;;;;;30.04;62.26;101043.97;5017445;28;70064;-37
2022/01/31 03:42:09;;;;;;;48.72;27.55;;;;;;;30.02;61.69;101027.09;5019354;28;65771;-37
2022/01/31 03:44:42;;;;;;;49.72;27.65;;;;;;;30.05;62.49;101029.38;5018489;28;70457;-38
2022/01/31 03:47:14;;;;;;;49.20;28.95;;;;;;;30.08;62.26;101037.06;5015175;28;65835;-37
2022/01/31 03:49:45;;;;;;;51.65;29.25;;;;;;;30.06;62.43;101026.47;5019040;28;70236;-37
2022/01/31 03:52:18;;;;;;;46.95;30.38;;;;;;;30.01;61.93;101017.34;5018324;28;66550;-36
2022/01/31 03:54:50;;;;;;;48.95;34.55;;;;;;;30.13;62.32;101022.94;5017997;28;69115;-38
2022/01/31 03:57:20;;;;;;;56.80;35.58;;;;;;;30.11;62.33;101020.41;5019014;28;66379;-37
2022/01/31 03:59:51;;;;;;;65.18;40.60;;;;;;;30.14;62.14;101022.69;5019196;28;70385;-37
2022/01/31 04:02:21;;;;;;;71.75;47.22;;;;;;;30.13;61.84;101015.63;5018855;28;65493;-37
2022/01/31 04:04:52;;;;;;;85.13;58.80;;;;;;;30.10;61.68;101007.13;5020162;28;70144;-36
2022/01/31 04:07:22;;;;;;;94.05;67.53;;;;;;;30.13;61.77;101004.81;5013826;28;66413;-36
2022/01/31 04:09:53;;;;;;;97.18;68.90;;;;;;;30.15;61.07;101002.72;5018138;28;69155;-37
2022/01/31 04:12:23;;;;;;;93.57;70.63;;;;;;;30.17;61.01;100992.53;5020768;28;66689;-36
2022/01/31 04:14:53;;;;;;;95.15;71.90;;;;;;;30.20;61.35;100978.56;5016636;28;69664;-37
2022/01/31 04:17:25;;;;;;;98.78;71.65;;;;;;;30.23;61.34;100986.31;5020049;28;65405;-37
2022/01/31 04:19:55;;;;;;;107.85;79.20;;;;;;;30.23;60.80;100980.06;5020004;28;69781;-36
2022/01/31 04:22:28;;;;;;;117.00;81.88;;;;;;;30.26;60.51;100985.88;5017379;28;65202;-36
2022/01/31 04:25:02;;;;;;;112.35;81.93;;;;;;;30.31;61.03;100978.97;5019211;28;70412;-36
2022/01/31 04:27:44;;;;;;;118.72;84.88;;;;;;;30.33;60.78;100982.31;5020614;28;66268;-36
2022/01/31 04:30:15;;;;;;;111.68;86.20;;;;;;;30.31;60.62;100976.25;5018746;28;70319;-36
2022/01/31 04:32:45;;;;;;;114.63;85.43;;;;;;;30.30;60.00;100966.50;5019851;28;65564;-36
2022/01/31 04:35:16;;;;;;;109.95;84.25;;;;;;;30.36;60.08;100963.75;5016846;28;70314;-36
2022/01/31 04:37:46;;;;;;;108.82;79.63;;;;;;;30.33;60.06;100949.81;5012765;28;66248;-35
2022/01/31 04:40:16;;;;;;;86.28;61.75;;;;;;;30.43;59.43;100961.03;5019170;28;70122;-36
2022/01/31 04:42:46;;;;;;;70.35;48.55;;;;;;;30.46;58.35;100957.91;5018486;28;65293;-37
2022/01/31 04:45:18;;;;;;;63.13;43.95;;;;;;;30.47;58.18;100946.84;5020033;28;69176;-36
2022/01/31 04:47:48;;;;;;;79.75;49.15;;;;;;;30.56;57.25;100943.88;5020405;28;66117;-37
2022/01/31 04:50:19;;;;;;;73.30;51.03;;;;;;;30.66;56.94;100952.38;5017804;28;69474;-37
2022/01/31 04:52:50;;;;;;;92.93;68.15;;;;;;;30.70;56.96;100949.00;5020021;28;65410;-37
2022/01/31 04:55:21;;;;;;;81.50;55.93;;;;;;;30.71;56.34;100942.53;5016443;28;69813;-37
2022/01/31 04:57:51;;;;;;;59.35;35.03;;;;;;;30.76;54.67;100938.34;5016397;28;65387;-37
2022/01/31 05:00:22;;;;;;;133.48;79.70;;;;;;;30.78;55.44;100926.25;5015426;28;69624;-37
2022/01/31 05:02:53;;;;;;;84.18;46.90;;;;;;;30.85;54.80;100928.94;5017649;28;66502;-38
2022/01/31 05:05:26;;;;;;;75.32;45.10;;;;;;;30.89;55.57;100932.88;5017154;28;43604;-37
2022/01/31 05:07:57;;;;;;;54.08;34.88;;;;;;;30.91;54.39;100911.81;5017463;28;65237;-38
2022/01/31 05:10:27;;;;;;;49.60;30.00;;;;;;;30.97;54.19;100924.47;5014841;28;69560;-38
2022/01/31 05:12:57;;;;;;;38.05;27.38;;;;;;;31.00;53.71;100918.63;5016335;28;66525;-36
2022/01/31 05:15:27;;;;;;;42.40;27.70;;;;;;;31.04;53.74;100903.59;5017151;28;70143;-36
2022/01/31 05:17:57;;;;;;;23.35;19.77;;;;;;;31.07;52.49;100905.84;5015127;28;65954;-36
2022/01/31 05:20:28;;;;;;;30.15;18.58;;;;;;;31.07;52.14;100886.91;5015232;28;69832;-36
2022/01/31 05:22:58;;;;;;;26.42;16.92;;;;;;;31.14;50.78;100884.94;5018635;28;65515;-36
2022/01/31 05:25:29;;;;;;;21.90;14.10;;;;;;;31.26;51.01;100884.22;5016616;28;68795;-37
2022/01/31 05:27:59;;;;;;;29.23;18.45;;;;;;;31.33;51.62;100890.41;5013584;28;66394;-38
2022/01/31 05:30:30;;;;;;;31.90;25.25;;;;;;;31.34;51.33;100887.50;5016308;28;69222;-37
2022/01/31 05:33:00;;;;;;;37.42;25.00;;;;;;;31.39;51.44;100879.53;5015647;28;65578;-38
2022/01/31 05:35:32;;;;;;;39.93;23.40;;;;;;;31.40;51.67;100874.97;5015277;28;69769;-38
2022/01/31 05:38:03;;;;;;;41.42;20.08;;;;;;;31.46;50.88;100882.19;5015904;28;65542;-38
2022/01/31 05:40:34;;;;;;;26.75;18.30;;;;;;;31.49;51.45;100873.59;5019461;28;70068;-38
2022/01/31 05:43:04;;;;;;;42.97;22.30;;;;;;;31.53;51.21;100863.94;5019626;28;65280;-38
2022/01/31 05:45:35;;;;;;;50.75;21.75;;;;;;;31.58;50.95;100866.81;5020110;28;70024;-37
2022/01/31 05:48:05;;;;;;;40.10;21.73;;;;;;;31.61;51.39;100869.06;5020574;28;65292;-36
2022/01/31 05:50:35;;;;;;;36.35;24.83;;;;;;;31.64;51.13;100861.56;5018495;28;69936;-37
2022/01/31 05:53:06;;;;;;;30.05;19.50;;;;;;;31.63;50.34;100852.59;5014773;28;66532;-36
2022/01/31 05:55:36;;;;;;;18.67;16.75;;;;;;;31.63;50.50;100854.47;5019547;28;71434;-36
2022/01/31 05:58:08;;;;;;;32.45;18.85;;;;;;;31.64;50.29;100837.16;5020107;28;67067;-37
2022/01/31 06:00:38;;;;;;;20.98;17.83;;;;;;;31.60;50.50;100834.88;5020655;28;70046;-37
2022/01/31 06:03:08;;;;;;;19.38;17.27;;;;;;;31.63;50.42;100822.75;5021499;28;66607;-37
2022/01/31 06:05:40;;;;;;;23.43;17.07;;;;;;;31.70;50.23;100834.34;5020451;28;69983;-36
2022/01/31 06:08:10;;;;;;;26.92;19.38;;;;;;;31.72;49.69;100828.72;5019605;28;66477;-37
2022/01/31 06:10:44;;;;;;;24.58;20.38;;;;;;;31.69;49.76;100823.75;5019517;28;70177;-36
2022/01/31 06:13:23;;;;;;;20.75;18.55;;;;;;;31.72;49.54;100815.97;5017189;28;65819;-36
2022/01/31 06:15:54;;;;;;;22.95;20.42;;;;;;;31.71;49.79;100806.19;5018977;28;70147;-36
2022/01/31 06:18:24;;;;;;;30.80;19.23;;;;;;;31.76;49.59;100802.78;5018230;28;66291;-37
2022/01/31 06:20:55;;;;;;;27.67;20.20;;;;;;;31.79;49.33;100803.16;5017244;28;69586;-36
2022/01/31 06:23:25;;;;;;;35.20;18.23;;;;;;;31.82;49.20;100796.47;5017398;28;66185;-37
2022/01/31 06:25:56;;;;;;;28.00;19.90;;;;;;;31.87;49.22;100802.00;5017404;28;70364;-37
2022/01/31 06:28:26;;;;;;;21.73;15.82;;;;;;;31.88;48.19;100779.25;5016493;28;66375;-36
2022/01/31 06:31:01;;;;;;;22.70;16.05;;;;;;;31.92;48.72;100768.78;5015754;28;69780;-36
2022/01/31 06:33:32;;;;;;;16.65;14.43;;;;;;;32.01;48.73;100773.69;5011598;28;64584;-37
2022/01/31 06:36:03;;;;;;;26.60;16.35;;;;;;;32.03;48.90;100782.41;5017247;28;70263;-36
2022/01/31 06:38:35;;;;;;;28.33;20.10;;;;;;;32.01;48.92;100768.25;5017434;28;65998;-38
2022/01/31 06:41:08;;;;;;;47.47;33.53;;;;;;;32.08;49.43;100773.56;5018991;28;70504;-37
2022/01/31 06:43:39;;;;;;;53.25;39.92;;;;;;;32.03;49.73;100766.13;5016568;28;65659;-37
2022/01/31 06:46:10;;;;;;;42.90;30.38;;;;;;;32.09;49.93;100774.41;5018737;28;71035;-36
2022/01/31 06:48:41;;;;;;;47.20;30.05;;;;;;;32.09;50.78;100766.25;5014926;28;65729;-38
2022/01/31 06:51:12;;;;;;;44.17;33.80;;;;;;;31.95;49.66;100752.88;5014547;28;69454;-37
2022/01/31 06:53:42;;;;;;;58.13;37.05;;;;;;;31.87;48.94;100765.91;5017563;28;66478;-36
2022/01/31 06:56:12;;;;;;;65.82;38.83;;;;;;;31.76;49.35;100751.25;5019208;28;70192;-37
2022/01/31 06:58:43;;;;;;;61.30;39.70;;;;;;;31.50;48.44;100728.84;5018693;28;66572;-38
2022/01/31 07:01:13;;;;;;;48.67;37.65;;;;;;;31.45;48.32;100736.84;5018283;28;68825;-38
2022/01/31 07:03:44;;;;;;;64.68;34.60;;;;;;;31.41;47.81;100740.25;5018721;28;66277;-39
2022/01/31 07:06:14;;;;;;;61.08;34.45;;;;;;;31.28;47.35;100735.78;5018100;28;70335;-38
2022/01/31 07:08:46;;;;;;;45.88;31.92;;;;;;;31.22;47.09;100733.97;5020440;28;65303;-38
2022/01/31 07:11:21;;;;;;;47.53;30.65;;;;;;;31.08;46.28;100725.97;5020357;28;69196;-38
2022/01/31 07:14:02;;;;;;;42.92;28.92;;;;;;;30.99;46.14;100732.75;5016733;28;65345;-37
2022/01/31 07:16:34;;;;;;;41.20;27.95;;;;;;;30.90;45.39;100724.09;5019183;28;69211;-38
2022/01/31 07:19:08;;;;;;;;;;;;;;;30.65;44.44;100721.41;5020004;28;66772;-37
2022/01/31 07:21:46;;;;;;;40.97;26.38;;;;;;;30.79;44.64;100722.09;5018752;28;70107;-37
2022/01/31 07:24:19;;;;;;;32.45;24.40;;;;;;;30.75;44.51;100714.66;5033810;28;66902;-37
2022/01/31 07:26:51;;;;;;;32.47;22.92;;;;;;;30.69;44.13;100722.59;5019565;28;69721;-37
2022/01/31 07:29:22;;;;;;;33.70;22.80;;;;;;;30.62;43.67;100718.28;5019820;28;66231;-37
2022/01/31 07:31:58;;;;;;;25.40;21.55;;;;;;;30.58;43.42;100709.78;5020299;28;69066;-37
2022/01/31 07:34:29;;;;;;;29.45;21.98;;;;;;;30.47;42.98;100697.00;5020719;28;66124;-37
2022/01/31 07:37:04;;;;;;;26.98;21.25;;;;;;;30.49;42.87;100717.38;5019363;28;70475;-38
2022/01/31 07:39:35;;;;;;;30.17;21.38;;;;;;;30.41;42.52;100698.72;5020075;28;66010;-38
2022/01/31 07:42:05;;;;;;;24.42;19.45;;;;;;;30.44;42.57;100692.84;5002524;28;68960;-38
2022/01/31 07:44:47;;;;;;;21.07;18.53;;;;;;;30.46;42.83;100706.16;5001087;28;65987;-38
2022/01/31 07:47:18;;;;;;;23.67;19.52;;;;;;;30.44;42.89;100697.44;5019259;28;69963;-37
2022/01/31 07:49:51;;;;;;;22.45;17.60;;;;;;;30.45;42.51;100699.09;5018993;28;65098;-37
2022/01/31 07:52:22;;;;;;;21.15;17.73;;;;;;;30.46;42.16;100700.75;5016698;28;69876;-38
2022/01/31 07:54:53;;;;;;;24.77;17.13;;;;;;;30.47;42.26;100691.56;5016759;28;66278;-39
2022/01/31 07:57:25;;;;;;;21.35;15.80;;;;;;;30.46;41.80;100695.34;5013624;28;68743;-39
2022/01/31 08:00:06;;;;;;;20.55;14.93;;;;;;;30.45;41.80;100683.69;5014133;28;66684;-37
2022/01/31 08:02:42;;;;;;;19.20;15.45;;;;;;;30.45;42.16;100689.09;5010413;28;69064;-37
2022/01/31 08:05:13;;;;;;;16.58;14.13;;;;;;;30.45;41.82;100683.69;5017231;28;65182;-36
2022/01/31 08:07:45;;;;;;;15.80;14.00;;;;;;;30.45;41.49;100682.84;5015509;28;70332;-38
2022/01/31 08:10:16;;;;;;;18.30;14.05;;;;;;;30.47;41.41;100689.69;5015862;28;66791;-37
2022/01/31 08:12:47;;;;;;;16.60;13.55;;;;;;;30.46;41.51;100681.81;5015161;28;69031;-38
2022/01/31 08:15:25;;;;;;;14.38;12.98;;;;;;;30.50;40.77;100688.41;5000660;28;66574;-38
2022/01/31 08:17:56;;;;;;;15.35;11.95;;;;;;;30.50;40.78;100689.25;4982786;28;69751;-38
2022/01/31 08:20:27;;;;;;;13.13;11.88;;;;;;;30.51;41.04;100681.97;5018933;28;66536;-37
2022/01/31 08:22:57;;;;;;;18.13;12.00;;;;;;;30.49;40.46;100668.66;5008826;28;69610;-38
2022/01/31 08:25:28;;;;;;;12.38;11.02;;;;;;;30.38;40.70;100649.63;5014643;28;65734;-38
2022/01/31 08:28:03;;;;;;;12.03;10.93;;;;;;;30.55;40.76;100683.19;5019263;28;69218;-38
2022/01/31 08:30:42;;;;;;;11.93;10.52;;;;;;;30.57;40.93;100681.09;5013853;28;66171;-37
2022/01/31 08:33:25;;;;;;;11.13;10.07;;;;;;;30.57;40.58;100683.78;5008624;28;69977;-38
2022/01/31 08:35:56;;;;;;;11.05;10.05;;;;;;;30.60;40.03;100680.63;5007181;28;66509;-38
2022/01/31 08:38:26;;;;;;;11.65;10.65;;;;;;;30.61;40.24;100682.28;5013053;28;70112;-38
2022/01/31 08:40:58;;;;;;;10.13;9.23;;;;;;;30.64;39.87;100684.53;5016756;28;65439;-38
2022/01/31 08:43:29;;;;;;;11.20;9.05;;;;;;;30.64;40.21;100681.81;5017603;28;69454;-38
2022/01/31 08:46:00;;;;;;;10.10;9.30;;;;;;;30.66;39.91;100679.72;5019277;28;66195;-38
2022/01/31 08:48:30;;;;;;;15.90;9.27;;;;;;;30.71;40.19;100688.00;5018379;28;70250;-47
2022/01/31 08:51:03;;;;;;;9.43;8.52;;;;;;;30.46;40.17;100642.03;5017297;28;65452;-38
2022/01/31 08:53:34;;;;;;;14.40;8.70;;;;;;;30.73;40.35;100679.69;5017961;28;71084;-38
2022/01/31 08:56:12;;;;;;;15.43;8.70;;;;;;;30.64;39.48;100657.47;5018799;28;66408;-38
2022/01/31 08:58:48;;;;;;;8.88;8.18;;;;;;;30.79;39.26;100688.78;5017592;28;70996;-37
2022/01/31 09:01:22;;;;;;;13.80;8.27;;;;;;;30.72;39.21;100668.00;5005703;28;66276;-37
2022/01/31 09:06:27;;;;;;;8.02;7.47;;;;;;;30.87;39.47;100677.66;5009395;28;65799;-37
2022/01/31 09:08:58;;;;;;;8.60;8.05;;;;;;;30.88;39.59;100682.88;5030207;28;69135;-38
2022/01/31 09:11:29;;;;;;;7.57;6.97;;;;;;;30.87;39.31;100674.97;5015829;28;66600;-39
2022/01/31 09:14:00;;;;;;;14.35;7.10;;;;;;;30.92;38.93;100684.09;5031835;28;69700;-37
2022/01/31 09:16:31;;;;;;;7.90;6.80;;;;;;;30.94;38.93;100678.44;5015376;28;67287;-38
2022/01/31 09:19:02;;;;;;;17.35;15.05;;;;;;;30.97;40.31;100664.44;5016541;28;70025;-38
2022/01/31 09:21:34;;;;;;;17.70;15.57;;;;;;;30.98;40.67;100671.53;5018466;28;65863;-38
2022/01/31 09:24:05;;;;;;;15.68;14.25;;;;;;;30.98;40.42;100674.22;5016720;28;70727;-39
2022/01/31 09:26:37;;;;;;;16.55;13.80;;;;;;;30.97;39.72;100664.44;5000163;28;65533;-38
2022/01/31 09:29:07;;;;;;;14.45;12.98;;;;;;;31.01;39.46;100679.19;5017375;28;70166;-38
2022/01/31 09:31:37;;;;;;;15.13;12.60;;;;;;;31.01;39.24;100670.22;5016152;28;66087;-37
2022/01/31 09:34:08;;;;;;;16.85;11.68;;;;;;;31.02;40.20;100674.59;5015644;28;70284;-36
2022/01/31 09:36:39;;;;;;;31.50;10.88;;;;;;;31.12;42.81;100678.44;5017613;28;66669;-37
2022/01/31 09:39:09;;;;;;;17.45;9.45;;;;;;;31.26;45.35;100678.25;5015954;28;70013;-36
2022/01/31 09:41:44;;;;;;;30.38;11.07;;;;;;;31.45;46.30;100682.63;5015787;28;66549;-36
2022/01/31 09:44:22;;;;;;;31.92;20.33;;;;;;;31.64;48.35;100674.44;5017552;28;70195;-37
2022/01/31 09:47:17;;;;;;;23.67;13.27;;;;;;;31.85;48.49;100686.69;5014554;28;66192;-36
2022/01/31 09:49:48;;;;;;;25.30;10.98;;;;;;;31.99;49.71;100683.56;5016345;28;69965;-37
2022/01/31 09:52:18;;;;;;;20.95;13.70;;;;;;;32.12;49.59;100685.22;5016674;28;67023;-38
2022/01/31 09:54:49;;;;;;;37.22;20.42;;;;;;;32.20;49.52;100695.72;5017805;28;70091;-36
2022/01/31 09:57:19;;;;;;;37.90;22.00;;;;;;;32.28;50.11;100691.84;5014210;28;66484;-36
2022/01/31 09:59:50;;;;;;;40.17;22.10;;;;;;;32.35;50.46;100698.00;5017562;28;69877;-36
2022/01/31 10:02:20;;;;;;;32.35;20.83;;;;;;;32.24;50.83;100672.50;5018673;28;65246;-36
2022/01/31 10:04:51;;;;;;;32.25;21.50;;;;;;;32.44;50.55;100702.00;5015983;28;69950;-36
2022/01/31 10:07:21;;;;;;;40.88;15.52;;;;;;;32.50;50.33;100703.00;5018722;28;65571;-37
2022/01/31 10:09:52;;;;;;;35.03;16.60;;;;;;;32.47;51.22;100690.72;5018836;28;70189;-37
2022/01/31 10:17:45;;;;;;;26.70;12.50;;;;;;;32.52;51.51;100703.59;5029703;28;65569;-36
2022/01/31 10:20:29;;;;;;;21.77;14.10;;;;;;;32.57;51.15;100702.88;5011549;28;69610;-36
2022/01/31 10:23:11;;;;;;;15.85;11.90;;;;;;;32.36;51.36;100672.50;5015625;28;66400;-36
2022/01/31 10:25:43;;;;;;;15.27;10.68;;;;;;;32.51;51.37;100696.50;5034885;28;70505;-35
2022/01/31 10:28:19;;;;;;;14.88;11.57;;;;;;;32.58;51.35;100715.41;5020296;28;66340;-36
2022/01/31 10:30:53;;;;;;;17.20;10.35;;;;;;;32.58;50.94;100718.13;5020007;28;69010;-35
2022/01/31 10:33:27;;;;;;;25.05;10.60;;;;;;;32.56;51.11;100710.19;5020633;28;66601;-36
2022/01/31 10:35:57;;;;;;;15.30;10.43;;;;;;;32.55;51.94;100724.03;5015578;28;69853;-35
2022/01/31 10:38:35;;;;;;;19.95;10.00;;;;;;;32.55;51.69;100719.41;5022002;28;66300;-35
2022/01/31 10:53:10;;;;;;;17.95;7.97;;;;;;;32.45;51.19;100727.28;5019695;28;70105;-36
2022/01/31 10:55:41;;;;;;;12.30;7.10;;;;;;;32.43;51.14;100722.09;5019562;28;65543;-35
2022/01/31 10:58:12;;;;;;;10.75;7.00;;;;;;;32.40;51.18;100725.28;5016253;28;70407;-35
2022/01/31 11:00:42;;;;;;;10.73;6.17;;;;;;;32.37;51.29;100731.16;5019569;28;65237;-35
2022/01/31 11:03:32;;;;;;;25.52;8.13;;;;;;;32.30;51.29;100725.03;5018244;28;70379;-36
2022/01/31 11:06:08;;;;;;;17.95;7.15;;;;;;;32.32;51.36;100731.06;5018895;28;65606;-36
2022/01/31 11:08:40;;;;;;;16.48;7.40;;;;;;;32.07;51.39;100701.38;5017425;28;69973;-36
2022/01/31 11:11:10;;;;;;;19.55;8.25;;;;;;;32.24;51.78;100739.53;5019049;28;65737;-36
2022/01/31 11:13:41;;;;;;;16.02;8.02;;;;;;;32.24;51.63;100748.50;5019655;28;69747;-37
2022/01/31 11:16:11;;;;;;;13.40;8.32;;;;;;;32.20;51.99;100751.91;5018105;28;66706;-35
2022/01/31 11:18:44;;;;;;;17.90;8.88;;;;;;;32.21;52.19;100773.38;5019701;28;70200;-35
2022/01/31 11:21:15;;;;;;;14.88;8.05;;;;;;;32.17;52.05;100755.06;5016090;28;65739;-35
2022/01/31 11:23:50;;;;;;;19.67;7.60;;;;;;;32.11;52.04;100764.16;5020217;28;69373;-35
2022/01/31 11:26:24;;;;;;;18.15;7.90;;;;;;;32.12;52.49;100776.66;5017392;28;65968;-35
2022/01/31 11:28:55;;;;;;;21.75;8.73;;;;;;;32.09;52.08;100780.66;5019739;28;70276;-35
2022/01/31 11:31:26;;;;;;;27.10;8.13;;;;;;;32.02;52.53;100769.91;5017413;28;68247;-36
2022/01/31 11:33:58;;;;;;;19.00;8.05;;;;;;;32.05;52.20;100784.91;5017384;28;70543;-36
2022/01/31 11:36:29;;;;;;;15.43;8.43;;;;;;;32.01;52.53;100794.53;5017457;28;66027;-36
2022/01/31 11:39:01;;;;;;;20.20;8.75;;;;;;;31.99;52.37;100796.69;5015866;28;70124;-36
2022/01/31 11:41:33;;;;;;;20.07;10.57;;;;;;;31.95;52.54;100804.44;5018518;28;66078;-36
2022/01/31 11:44:06;;;;;;;;;;;;;;;31.75;53.28;100807.38;5018422;28;69929;-35
2022/01/31 11:46:40;;;;;;;13.82;8.60;;;;;;;31.91;52.79;100811.38;5018097;28;66507;-35
2022/01/31 11:49:14;;;;;;;16.02;8.07;;;;;;;31.68;52.71;100779.53;5015280;28;70059;-37
2022/01/31 11:52:02;;;;;;;15.80;8.32;;;;;;;31.78;52.55;100812.34;5015434;28;65188;-37
2022/01/31 11:54:46;;;;;;;17.25;7.82;;;;;;;31.77;52.73;100820.72;5013822;28;70120;-36
2022/01/31 11:57:20;;;;;;;11.57;8.05;;;;;;;31.80;53.36;100831.09;5008999;28;66833;-36